Prescott, Arizona
Current Conditions -  °F | °C
As of 3:53 PM on Wednesday 26 Nov 2014 (Local Time) from KPRC Reporting Station
Clear Clear  
Wind Chill: 68°   Ceiling: Unl
Heat Index: 68°   Visibility: 10mi
Dew Point: 17°   Wind: 3mph
Humidity: 14%   Direction: 330°NNW
Pressure: 30.34"   Gusts: NA
Location:  34.54°N, 112.47°W
Report Text: KPRC 262253Z 33003KT 10SM CLR 20/M08 A3034 RMK AO2 SLP233 T02001083
Loading
Personal Weather Stations






























Interactive Weather Map New forecast layout! Learn more

10-Day Weather Forecast

Advertisements
Track Severe Weather on mobile